Orbital elements of COSMOS 2251 DEB
| Launched | 15 June 1993 |
| Flight ended | – |
| Launch site | Plesetsk Missile and Space Complex, Russia |
| Owner | Commonwealth of Independent States (former USSR) |
| NORAD ID | 35834 |
| Date fetched |
Epoch osculation |
Inc. [°] |
Ecc. | RA asc node [hr] |
Arg Peri. [°] |
Mean anom [°] |
Mean motion [rev/day] |
Abs. mag |
| Date fetched |
Epoch osculation |
Inc. [°] |
Ecc. | RA asc node [hr] |
Arg Peri. [°] |
Mean anom [°] |
Mean motion [rev/day] |
Abs. mag |
| 2026 May 08 17:57 | 2026 May 05 13:00:58 | 73.9336 | 0.01104 | 3.2409 | 179.1549 | 2.1018 | 14.13100 | – |
| 2026 May 07 17:58 | 2026 May 05 13:00:58 | 73.9336 | 0.01104 | 3.2409 | 179.1549 | 2.1018 | 14.13100 | – |
| 2026 May 06 17:57 | 2026 May 05 13:00:58 | 73.9336 | 0.01104 | 3.2409 | 179.1549 | 2.1018 | 14.13100 | – |
| 2026 May 05 17:57 | 2026 May 05 13:00:58 | 73.9336 | 0.01104 | 3.2409 | 179.1549 | 2.1018 | 14.13100 | – |
| 2026 May 04 17:57 | 2026 Apr 29 14:18:03 | 73.9334 | 0.01107 | 3.9465 | 190.9162 | 2.1018 | 14.13100 | – |
| 2026 May 03 17:57 | 2026 Apr 29 14:18:03 | 73.9334 | 0.01107 | 3.9465 | 190.9162 | 2.1018 | 14.13100 | – |
| 2026 May 02 17:57 | 2026 Apr 29 14:18:03 | 73.9334 | 0.01107 | 3.9465 | 190.9162 | 2.1018 | 14.13100 | – |
| 2026 May 01 17:56 | 2026 Apr 29 14:18:03 | 73.9334 | 0.01107 | 3.9465 | 190.9162 | 2.1018 | 14.13100 | – |
| 2026 Apr 30 17:56 | 2026 Apr 29 14:18:03 | 73.9334 | 0.01107 | 3.9465 | 190.9162 | 2.1018 | 14.13100 | – |
| 2026 Apr 29 17:57 | 2026 Apr 23 13:36:29 | 73.9324 | 0.01109 | 4.6618 | 202.7545 | 2.1018 | 14.13100 | – |
| 2026 Apr 28 17:56 | 2026 Apr 23 13:36:29 | 73.9324 | 0.01109 | 4.6618 | 202.7545 | 2.1018 | 14.13100 | – |
| 2026 Apr 27 17:58 | 2026 Apr 23 13:36:29 | 73.9324 | 0.01109 | 4.6618 | 202.7545 | 2.1018 | 14.13100 | – |
| 2026 Apr 26 17:58 | 2026 Apr 23 13:36:29 | 73.9324 | 0.01109 | 4.6618 | 202.7545 | 2.1018 | 14.13100 | – |
| 2026 Apr 25 17:58 | 2026 Apr 23 13:36:29 | 73.9324 | 0.01109 | 4.6618 | 202.7545 | 2.1018 | 14.13100 | – |
| 2026 Apr 24 17:59 | 2026 Apr 23 13:36:29 | 73.9324 | 0.01109 | 4.6618 | 202.7545 | 2.1018 | 14.13100 | – |
| 2026 Apr 23 17:57 | 2026 Apr 19 03:45:27 | 73.9316 | 0.01111 | 5.1851 | 211.3823 | 2.1018 | 14.13100 | – |
| 2026 Apr 22 17:57 | 2026 Apr 19 03:45:27 | 73.9316 | 0.01111 | 5.1851 | 211.3823 | 2.1018 | 14.13100 | – |
| 2026 Apr 21 17:57 | 2026 Apr 19 03:45:27 | 73.9316 | 0.01111 | 5.1851 | 211.3823 | 2.1018 | 14.13100 | – |
| 2026 Apr 20 17:57 | 2026 Apr 19 03:45:27 | 73.9316 | 0.01111 | 5.1851 | 211.3823 | 2.1018 | 14.13100 | – |
| 2026 Apr 19 17:58 | 2026 Apr 19 03:45:27 | 73.9316 | 0.01111 | 5.1851 | 211.3823 | 2.1018 | 14.13100 | – |
| 2026 Apr 18 17:56 | 2026 Apr 13 05:01:45 | 73.9300 | 0.01113 | 5.8909 | 223.1294 | 2.1018 | 14.13100 | – |
| 2026 Apr 16 17:57 | 2026 Apr 13 05:01:45 | 73.9300 | 0.01113 | 5.8909 | 223.1294 | 2.1018 | 14.13100 | – |
| 2026 Apr 14 17:57 | 2026 Apr 13 05:01:45 | 73.9300 | 0.01113 | 5.8909 | 223.1294 | 2.1018 | 14.13100 | – |
| 2026 Apr 13 17:57 | 2026 Apr 13 05:01:45 | 73.9300 | 0.01113 | 5.8909 | 223.1294 | 2.1018 | 14.13100 | – |
| 2026 Apr 12 17:57 | 2026 Apr 08 10:08:06 | 73.9289 | 0.01115 | 6.4590 | 232.5778 | 2.1018 | 14.13100 | – |
| 2026 Apr 11 17:57 | 2026 Apr 08 10:08:06 | 73.9289 | 0.01115 | 6.4590 | 232.5778 | 2.1018 | 14.13100 | – |